sensor_id;sensor_type;location;lat;lon;timestamp;P1;durP1;ratioP1;P2;durP2;ratioP2
20124;SDS011;10223;50.862;4.360;2024-02-15T00:01:03;18.13;;;6.27;;
20124;SDS011;10223;50.862;4.360;2024-02-15T00:03:30;15.20;;;4.57;;
20124;SDS011;10223;50.862;4.360;2024-02-15T00:05:57;16.13;;;5.33;;
20124;SDS011;10223;50.862;4.360;2024-02-15T00:08:24;18.97;;;5.07;;
20124;SDS011;10223;50.862;4.360;2024-02-15T00:10:51;13.10;;;4.53;;
20124;SDS011;10223;50.862;4.360;2024-02-15T00:13:18;14.23;;;4.90;;
20124;SDS011;10223;50.862;4.360;2024-02-15T00:15:46;19.30;;;6.23;;
20124;SDS011;10223;50.862;4.360;2024-02-15T00:18:17;15.67;;;4.97;;
20124;SDS011;10223;50.862;4.360;2024-02-15T00:20:44;21.63;;;5.57;;
20124;SDS011;10223;50.862;4.360;2024-02-15T00:23:11;13.53;;;5.00;;
20124;SDS011;10223;50.862;4.360;2024-02-15T00:25:38;13.07;;;3.93;;
20124;SDS011;10223;50.862;4.360;2024-02-15T00:28:09;20.43;;;6.47;;
20124;SDS011;10223;50.862;4.360;2024-02-15T00:30:36;14.60;;;4.57;;
20124;SDS011;10223;50.862;4.360;2024-02-15T00:33:03;9.90;;;3.80;;
20124;SDS011;10223;50.862;4.360;2024-02-15T00:35:32;17.30;;;3.83;;
20124;SDS011;10223;50.862;4.360;2024-02-15T00:37:59;9.93;;;3.40;;
20124;SDS011;10223;50.862;4.360;2024-02-15T00:40:25;13.97;;;3.70;;
20124;SDS011;10223;50.862;4.360;2024-02-15T00:42:52;8.20;;;3.40;;
20124;SDS011;10223;50.862;4.360;2024-02-15T00:45:20;12.93;;;3.90;;
20124;SDS011;10223;50.862;4.360;2024-02-15T00:47:46;11.93;;;3.23;;
20124;SDS011;10223;50.862;4.360;2024-02-15T00:50:13;15.17;;;3.37;;
20124;SDS011;10223;50.862;4.360;2024-02-15T00:52:42;10.70;;;3.10;;
20124;SDS011;10223;50.862;4.360;2024-02-15T00:55:09;11.93;;;3.47;;
20124;SDS011;10223;50.862;4.360;2024-02-15T00:57:35;11.47;;;2.70;;
20124;SDS011;10223;50.862;4.360;2024-02-15T01:00:03;11.47;;;3.40;;
20124;SDS011;10223;50.862;4.360;2024-02-15T01:02:30;12.50;;;2.87;;
20124;SDS011;10223;50.862;4.360;2024-02-15T01:04:58;8.53;;;3.20;;
20124;SDS011;10223;50.862;4.360;2024-02-15T01:07:25;14.40;;;3.10;;
20124;SDS011;10223;50.862;4.360;2024-02-15T01:09:54;10.50;;;3.13;;
20124;SDS011;10223;50.862;4.360;2024-02-15T01:12:21;10.00;;;2.70;;
20124;SDS011;10223;50.862;4.360;2024-02-15T01:14:48;9.10;;;3.10;;
20124;SDS011;10223;50.862;4.360;2024-02-15T01:17:15;13.77;;;3.30;;
20124;SDS011;10223;50.862;4.360;2024-02-15T01:19:42;9.10;;;3.17;;
20124;SDS011;10223;50.862;4.360;2024-02-15T01:22:10;12.20;;;3.33;;
20124;SDS011;10223;50.862;4.360;2024-02-15T01:24:37;10.63;;;2.30;;
20124;SDS011;10223;50.862;4.360;2024-02-15T01:27:06;15.67;;;3.20;;
20124;SDS011;10223;50.862;4.360;2024-02-15T01:29:34;10.87;;;3.03;;
20124;SDS011;10223;50.862;4.360;2024-02-15T01:32:01;5.67;;;2.00;;
20124;SDS011;10223;50.862;4.360;2024-02-15T01:34:30;15.77;;;2.97;;
20124;SDS011;10223;50.862;4.360;2024-02-15T01:36:57;9.77;;;2.63;;
20124;SDS011;10223;50.862;4.360;2024-02-15T01:39:25;14.53;;;2.43;;
20124;SDS011;10223;50.862;4.360;2024-02-15T01:41:52;8.00;;;2.33;;
20124;SDS011;10223;50.862;4.360;2024-02-15T01:44:22;9.07;;;2.60;;
20124;SDS011;10223;50.862;4.360;2024-02-15T01:46:50;6.80;;;2.00;;
20124;SDS011;10223;50.862;4.360;2024-02-15T01:49:18;5.93;;;1.97;;
20124;SDS011;10223;50.862;4.360;2024-02-15T01:51:47;10.70;;;2.53;;
20124;SDS011;10223;50.862;4.360;2024-02-15T01:54:15;4.30;;;1.67;;
20124;SDS011;10223;50.862;4.360;2024-02-15T01:56:43;10.70;;;2.70;;
20124;SDS011;10223;50.862;4.360;2024-02-15T01:59:11;6.10;;;2.07;;
20124;SDS011;10223;50.862;4.360;2024-02-15T02:01:42;9.73;;;1.87;;
20124;SDS011;10223;50.862;4.360;2024-02-15T02:04:09;6.23;;;2.37;;
20124;SDS011;10223;50.862;4.360;2024-02-15T02:06:37;6.60;;;1.93;;
20124;SDS011;10223;50.862;4.360;2024-02-15T02:09:04;7.83;;;2.30;;
20124;SDS011;10223;50.862;4.360;2024-02-15T02:11:31;7.77;;;2.10;;
20124;SDS011;10223;50.862;4.360;2024-02-15T02:13:58;8.43;;;2.30;;
20124;SDS011;10223;50.862;4.360;2024-02-15T02:16:25;7.00;;;2.70;;
20124;SDS011;10223;50.862;4.360;2024-02-15T02:18:54;10.20;;;2.30;;
20124;SDS011;10223;50.862;4.360;2024-02-15T02:21:21;10.23;;;2.13;;
20124;SDS011;10223;50.862;4.360;2024-02-15T02:23:51;10.13;;;2.33;;
20124;SDS011;10223;50.862;4.360;2024-02-15T02:26:20;7.40;;;2.30;;
20124;SDS011;10223;50.862;4.360;2024-02-15T02:28:48;7.27;;;2.37;;
20124;SDS011;10223;50.862;4.360;2024-02-15T02:31:15;7.53;;;1.80;;
20124;SDS011;10223;50.862;4.360;2024-02-15T02:33:43;8.70;;;2.97;;
20124;SDS011;10223;50.862;4.360;2024-02-15T02:36:14;5.27;;;1.73;;
20124;SDS011;10223;50.862;4.360;2024-02-15T02:38:41;11.47;;;2.87;;
20124;SDS011;10223;50.862;4.360;2024-02-15T02:41:10;10.70;;;2.20;;
20124;SDS011;10223;50.862;4.360;2024-02-15T02:43:39;7.93;;;1.80;;
20124;SDS011;10223;50.862;4.360;2024-02-15T02:46:06;8.87;;;2.07;;
20124;SDS011;10223;50.862;4.360;2024-02-15T02:48:33;7.83;;;1.80;;
20124;SDS011;10223;50.862;4.360;2024-02-15T02:50:59;10.23;;;2.03;;
20124;SDS011;10223;50.862;4.360;2024-02-15T02:53:27;7.73;;;1.90;;
20124;SDS011;10223;50.862;4.360;2024-02-15T02:55:55;5.87;;;1.90;;
20124;SDS011;10223;50.862;4.360;2024-02-15T02:58:22;7.53;;;2.43;;
20124;SDS011;10223;50.862;4.360;2024-02-15T03:00:51;5.87;;;1.93;;
20124;SDS011;10223;50.862;4.360;2024-02-15T03:03:18;9.87;;;2.20;;
20124;SDS011;10223;50.862;4.360;2024-02-15T03:05:45;8.00;;;2.07;;
20124;SDS011;10223;50.862;4.360;2024-02-15T03:08:12;7.67;;;1.90;;
20124;SDS011;10223;50.862;4.360;2024-02-15T03:10:39;7.60;;;2.43;;
20124;SDS011;10223;50.862;4.360;2024-02-15T03:13:06;6.63;;;1.80;;
20124;SDS011;10223;50.862;4.360;2024-02-15T03:15:34;7.40;;;1.93;;
20124;SDS011;10223;50.862;4.360;2024-02-15T03:18:02;9.57;;;2.20;;
20124;SDS011;10223;50.862;4.360;2024-02-15T03:20:32;9.63;;;2.27;;
20124;SDS011;10223;50.862;4.360;2024-02-15T03:23:00;7.27;;;1.83;;
20124;SDS011;10223;50.862;4.360;2024-02-15T03:25:27;9.93;;;2.33;;
20124;SDS011;10223;50.862;4.360;2024-02-15T03:27:55;6.53;;;2.13;;
20124;SDS011;10223;50.862;4.360;2024-02-15T03:30:23;8.57;;;1.90;;
20124;SDS011;10223;50.862;4.360;2024-02-15T03:32:51;9.77;;;2.03;;
20124;SDS011;10223;50.862;4.360;2024-02-15T03:35:21;7.63;;;2.23;;
20124;SDS011;10223;50.862;4.360;2024-02-15T03:37:49;7.50;;;2.10;;
20124;SDS011;10223;50.862;4.360;2024-02-15T03:40:17;6.83;;;2.00;;
20124;SDS011;10223;50.862;4.360;2024-02-15T03:42:44;4.67;;;1.80;;
20124;SDS011;10223;50.862;4.360;2024-02-15T03:45:12;7.00;;;2.17;;
20124;SDS011;10223;50.862;4.360;2024-02-15T03:47:39;6.90;;;2.37;;
20124;SDS011;10223;50.862;4.360;2024-02-15T03:50:06;5.80;;;2.07;;
20124;SDS011;10223;50.862;4.360;2024-02-15T03:52:37;6.97;;;2.33;;
20124;SDS011;10223;50.862;4.360;2024-02-15T03:55:04;8.13;;;1.60;;
20124;SDS011;10223;50.862;4.360;2024-02-15T03:57:32;4.67;;;2.00;;
20124;SDS011;10223;50.862;4.360;2024-02-15T03:59:59;13.80;;;2.27;;
20124;SDS011;10223;50.862;4.360;2024-02-15T04:02:27;6.83;;;2.17;;
20124;SDS011;10223;50.862;4.360;2024-02-15T04:04:55;11.20;;;2.40;;
20124;SDS011;10223;50.862;4.360;2024-02-15T04:07:22;5.93;;;2.17;;
20124;SDS011;10223;50.862;4.360;2024-02-15T04:09:53;7.07;;;2.20;;
20124;SDS011;10223;50.862;4.360;2024-02-15T04:12:20;11.17;;;2.93;;
20124;SDS011;10223;50.862;4.360;2024-02-15T04:14:47;7.13;;;2.23;;
20124;SDS011;10223;50.862;4.360;2024-02-15T04:17:16;9.73;;;2.60;;
20124;SDS011;10223;50.862;4.360;2024-02-15T04:19:46;10.40;;;2.77;;
20124;SDS011;10223;50.862;4.360;2024-02-15T04:22:15;9.37;;;2.07;;
20124;SDS011;10223;50.862;4.360;2024-02-15T04:24:42;11.57;;;2.57;;
20124;SDS011;10223;50.862;4.360;2024-02-15T04:27:11;8.80;;;2.53;;
20124;SDS011;10223;50.862;4.360;2024-02-15T04:29:39;8.13;;;2.87;;
20124;SDS011;10223;50.862;4.360;2024-02-15T04:32:06;11.30;;;2.80;;
20124;SDS011;10223;50.862;4.360;2024-02-15T04:34:35;8.50;;;2.30;;
20124;SDS011;10223;50.862;4.360;2024-02-15T04:37:02;8.93;;;3.03;;
20124;SDS011;10223;50.862;4.360;2024-02-15T04:39:31;8.83;;;3.17;;
20124;SDS011;10223;50.862;4.360;2024-02-15T04:41:58;6.87;;;2.33;;
20124;SDS011;10223;50.862;4.360;2024-02-15T04:44:26;12.47;;;2.80;;
20124;SDS011;10223;50.862;4.360;2024-02-15T04:46:54;10.17;;;2.50;;
20124;SDS011;10223;50.862;4.360;2024-02-15T04:49:21;5.90;;;2.37;;
20124;SDS011;10223;50.862;4.360;2024-02-15T04:51:49;13.30;;;2.50;;
20124;SDS011;10223;50.862;4.360;2024-02-15T04:54:16;8.47;;;2.53;;
20124;SDS011;10223;50.862;4.360;2024-02-15T04:56:43;4.73;;;2.03;;
20124;SDS011;10223;50.862;4.360;2024-02-15T04:59:11;10.07;;;2.13;;
20124;SDS011;10223;50.862;4.360;2024-02-15T05:01:41;8.23;;;1.70;;
20124;SDS011;10223;50.862;4.360;2024-02-15T05:04:09;6.87;;;2.13;;
20124;SDS011;10223;50.862;4.360;2024-02-15T05:06:36;4.07;;;1.57;;
20124;SDS011;10223;50.862;4.360;2024-02-15T05:09:03;14.63;;;2.23;;
20124;SDS011;10223;50.862;4.360;2024-02-15T05:11:32;4.77;;;1.40;;
20124;SDS011;10223;50.862;4.360;2024-02-15T05:14:00;7.57;;;1.43;;
20124;SDS011;10223;50.862;4.360;2024-02-15T05:16:27;5.10;;;1.37;;
20124;SDS011;10223;50.862;4.360;2024-02-15T05:18:57;5.40;;;1.43;;
20124;SDS011;10223;50.862;4.360;2024-02-15T05:21:25;6.20;;;1.63;;
20124;SDS011;10223;50.862;4.360;2024-02-15T05:23:52;7.50;;;1.87;;
20124;SDS011;10223;50.862;4.360;2024-02-15T05:26:20;7.03;;;1.30;;
20124;SDS011;10223;50.862;4.360;2024-02-15T05:28:48;5.33;;;1.50;;
20124;SDS011;10223;50.862;4.360;2024-02-15T05:31:17;6.60;;;1.53;;
20124;SDS011;10223;50.862;4.360;2024-02-15T05:33:45;3.87;;;1.10;;
20124;SDS011;10223;50.862;4.360;2024-02-15T05:36:14;5.63;;;1.30;;
20124;SDS011;10223;50.862;4.360;2024-02-15T05:38:46;4.20;;;1.10;;
20124;SDS011;10223;50.862;4.360;2024-02-15T05:41:14;6.27;;;1.50;;
20124;SDS011;10223;50.862;4.360;2024-02-15T05:43:41;3.90;;;1.40;;
20124;SDS011;10223;50.862;4.360;2024-02-15T05:46:09;5.63;;;1.33;;
20124;SDS011;10223;50.862;4.360;2024-02-15T05:48:36;6.47;;;1.60;;
20124;SDS011;10223;50.862;4.360;2024-02-15T05:51:04;3.90;;;1.33;;
20124;SDS011;10223;50.862;4.360;2024-02-15T05:53:34;6.57;;;1.20;;
20124;SDS011;10223;50.862;4.360;2024-02-15T05:56:02;7.87;;;1.40;;
20124;SDS011;10223;50.862;4.360;2024-02-15T05:58:30;6.27;;;1.60;;
20124;SDS011;10223;50.862;4.360;2024-02-15T06:00:57;6.23;;;1.73;;
20124;SDS011;10223;50.862;4.360;2024-02-15T06:03:26;8.97;;;1.30;;
20124;SDS011;10223;50.862;4.360;2024-02-15T06:05:53;4.17;;;1.30;;
20124;SDS011;10223;50.862;4.360;2024-02-15T06:08:23;2.07;;;1.10;;
20124;SDS011;10223;50.862;4.360;2024-02-15T06:10:52;3.20;;;1.40;;
20124;SDS011;10223;50.862;4.360;2024-02-15T06:13:19;4.80;;;1.50;;
20124;SDS011;10223;50.862;4.360;2024-02-15T06:15:46;4.10;;;1.40;;
20124;SDS011;10223;50.862;4.360;2024-02-15T06:18:17;4.87;;;1.37;;
20124;SDS011;10223;50.862;4.360;2024-02-15T06:20:46;6.67;;;1.60;;
20124;SDS011;10223;50.862;4.360;2024-02-15T06:23:15;3.73;;;1.27;;
20124;SDS011;10223;50.862;4.360;2024-02-15T06:25:42;7.63;;;1.30;;
20124;SDS011;10223;50.862;4.360;2024-02-15T06:28:10;4.97;;;1.40;;
20124;SDS011;10223;50.862;4.360;2024-02-15T06:31:01;7.90;;;1.40;;
20124;SDS011;10223;50.862;4.360;2024-02-15T06:33:46;5.97;;;1.20;;
20124;SDS011;10223;50.862;4.360;2024-02-15T06:36:30;4.73;;;1.43;;
20124;SDS011;10223;50.862;4.360;2024-02-15T06:39:14;6.80;;;1.07;;
20124;SDS011;10223;50.862;4.360;2024-02-15T06:41:58;6.43;;;1.77;;
20124;SDS011;10223;50.862;4.360;2024-02-15T06:44:27;5.37;;;1.20;;
20124;SDS011;10223;50.862;4.360;2024-02-15T06:46:54;6.67;;;1.37;;
20124;SDS011;10223;50.862;4.360;2024-02-15T06:49:22;4.87;;;1.30;;
20124;SDS011;10223;50.862;4.360;2024-02-15T06:51:50;7.20;;;1.90;;
20124;SDS011;10223;50.862;4.360;2024-02-15T06:54:17;4.43;;;1.57;;
20124;SDS011;10223;50.862;4.360;2024-02-15T06:56:44;7.30;;;1.50;;
20124;SDS011;10223;50.862;4.360;2024-02-15T06:59:12;6.00;;;1.30;;
20124;SDS011;10223;50.862;4.360;2024-02-15T07:01:41;4.13;;;1.40;;
20124;SDS011;10223;50.862;4.360;2024-02-15T07:04:09;5.57;;;1.37;;
20124;SDS011;10223;50.862;4.360;2024-02-15T07:06:36;5.60;;;1.40;;
20124;SDS011;10223;50.862;4.360;2024-02-15T07:09:11;5.37;;;1.83;;
20124;SDS011;10223;50.862;4.360;2024-02-15T07:11:40;3.27;;;1.40;;
20124;SDS011;10223;50.862;4.360;2024-02-15T07:14:07;6.60;;;1.40;;
20124;SDS011;10223;50.862;4.360;2024-02-15T07:16:34;7.47;;;2.17;;
20124;SDS011;10223;50.862;4.360;2024-02-15T07:19:02;4.83;;;1.63;;
20124;SDS011;10223;50.862;4.360;2024-02-15T07:21:29;5.63;;;1.30;;
20124;SDS011;10223;50.862;4.360;2024-02-15T07:23:57;8.93;;;1.60;;
20124;SDS011;10223;50.862;4.360;2024-02-15T07:26:25;5.40;;;1.33;;
20124;SDS011;10223;50.862;4.360;2024-02-15T07:28:53;4.30;;;1.37;;
20124;SDS011;10223;50.862;4.360;2024-02-15T07:31:21;7.03;;;1.60;;
20124;SDS011;10223;50.862;4.360;2024-02-15T07:33:48;4.63;;;1.40;;
20124;SDS011;10223;50.862;4.360;2024-02-15T07:36:19;3.60;;;1.33;;
20124;SDS011;10223;50.862;4.360;2024-02-15T07:38:46;5.47;;;1.47;;
20124;SDS011;10223;50.862;4.360;2024-02-15T07:41:13;6.33;;;1.30;;
20124;SDS011;10223;50.862;4.360;2024-02-15T07:43:40;3.27;;;1.40;;
20124;SDS011;10223;50.862;4.360;2024-02-15T07:46:11;5.43;;;1.40;;
20124;SDS011;10223;50.862;4.360;2024-02-15T07:48:39;5.70;;;1.43;;
20124;SDS011;10223;50.862;4.360;2024-02-15T07:51:10;7.40;;;1.63;;
20124;SDS011;10223;50.862;4.360;2024-02-15T07:53:39;7.60;;;1.50;;
20124;SDS011;10223;50.862;4.360;2024-02-15T07:56:08;5.93;;;1.30;;
20124;SDS011;10223;50.862;4.360;2024-02-15T07:58:37;4.47;;;1.30;;
20124;SDS011;10223;50.862;4.360;2024-02-15T08:01:06;9.33;;;1.47;;
20124;SDS011;10223;50.862;4.360;2024-02-15T08:03:34;8.80;;;1.70;;
20124;SDS011;10223;50.862;4.360;2024-02-15T08:06:01;3.70;;;1.30;;
20124;SDS011;10223;50.862;4.360;2024-02-15T08:08:31;6.80;;;1.57;;
20124;SDS011;10223;50.862;4.360;2024-02-15T08:11:04;5.80;;;1.40;;
20124;SDS011;10223;50.862;4.360;2024-02-15T08:13:37;7.27;;;1.40;;
20124;SDS011;10223;50.862;4.360;2024-02-15T08:16:04;5.43;;;1.43;;
20124;SDS011;10223;50.862;4.360;2024-02-15T08:18:31;5.40;;;1.40;;
20124;SDS011;10223;50.862;4.360;2024-02-15T08:21:00;5.93;;;1.30;;
20124;SDS011;10223;50.862;4.360;2024-02-15T08:23:27;5.93;;;1.60;;
20124;SDS011;10223;50.862;4.360;2024-02-15T08:25:54;4.03;;;1.30;;
20124;SDS011;10223;50.862;4.360;2024-02-15T08:28:24;4.87;;;1.60;;
20124;SDS011;10223;50.862;4.360;2024-02-15T08:30:53;7.07;;;1.50;;
20124;SDS011;10223;50.862;4.360;2024-02-15T08:33:22;4.23;;;1.63;;
20124;SDS011;10223;50.862;4.360;2024-02-15T08:35:53;4.20;;;1.53;;
20124;SDS011;10223;50.862;4.360;2024-02-15T08:38:20;6.53;;;1.63;;
20124;SDS011;10223;50.862;4.360;2024-02-15T08:40:47;5.10;;;1.40;;
20124;SDS011;10223;50.862;4.360;2024-02-15T08:43:14;4.23;;;1.30;;
20124;SDS011;10223;50.862;4.360;2024-02-15T08:45:43;5.00;;;1.33;;
20124;SDS011;10223;50.862;4.360;2024-02-15T08:48:10;7.80;;;1.40;;
20124;SDS011;10223;50.862;4.360;2024-02-15T08:50:37;3.67;;;1.60;;
20124;SDS011;10223;50.862;4.360;2024-02-15T08:53:04;6.83;;;1.33;;
20124;SDS011;10223;50.862;4.360;2024-02-15T08:55:32;3.70;;;1.40;;
20124;SDS011;10223;50.862;4.360;2024-02-15T08:58:00;4.53;;;1.60;;
20124;SDS011;10223;50.862;4.360;2024-02-15T09:00:29;3.73;;;1.57;;
20124;SDS011;10223;50.862;4.360;2024-02-15T09:02:57;7.67;;;2.27;;
20124;SDS011;10223;50.862;4.360;2024-02-15T09:05:24;9.87;;;1.97;;
20124;SDS011;10223;50.862;4.360;2024-02-15T09:07:51;4.20;;;1.70;;
20124;SDS011;10223;50.862;4.360;2024-02-15T09:10:18;3.53;;;1.50;;
20124;SDS011;10223;50.862;4.360;2024-02-15T09:12:47;3.67;;;1.50;;
20124;SDS011;10223;50.862;4.360;2024-02-15T09:15:14;6.77;;;1.83;;
20124;SDS011;10223;50.862;4.360;2024-02-15T09:17:41;4.73;;;1.63;;
20124;SDS011;10223;50.862;4.360;2024-02-15T09:20:12;8.57;;;1.70;;
20124;SDS011;10223;50.862;4.360;2024-02-15T09:22:40;6.17;;;1.47;;
20124;SDS011;10223;50.862;4.360;2024-02-15T09:25:08;8.23;;;2.17;;
20124;SDS011;10223;50.862;4.360;2024-02-15T09:27:35;10.80;;;2.33;;
20124;SDS011;10223;50.862;4.360;2024-02-15T09:30:03;8.63;;;2.10;;
20124;SDS011;10223;50.862;4.360;2024-02-15T09:32:33;6.77;;;1.53;;
20124;SDS011;10223;50.862;4.360;2024-02-15T09:35:01;8.97;;;1.60;;
20124;SDS011;10223;50.862;4.360;2024-02-15T09:37:29;6.20;;;1.40;;
20124;SDS011;10223;50.862;4.360;2024-02-15T09:39:58;7.00;;;1.77;;
20124;SDS011;10223;50.862;4.360;2024-02-15T09:42:30;7.10;;;1.40;;
20124;SDS011;10223;50.862;4.360;2024-02-15T09:44:59;3.80;;;1.30;;
20124;SDS011;10223;50.862;4.360;2024-02-15T09:47:27;9.57;;;1.47;;
20124;SDS011;10223;50.862;4.360;2024-02-15T09:50:00;4.83;;;1.33;;
20124;SDS011;10223;50.862;4.360;2024-02-15T09:52:27;5.97;;;1.60;;
20124;SDS011;10223;50.862;4.360;2024-02-15T09:54:58;11.07;;;1.80;;
20124;SDS011;10223;50.862;4.360;2024-02-15T09:57:28;8.17;;;2.30;;
20124;SDS011;10223;50.862;4.360;2024-02-15T10:00:00;3.20;;;1.53;;
20124;SDS011;10223;50.862;4.360;2024-02-15T10:02:28;6.97;;;1.67;;
20124;SDS011;10223;50.862;4.360;2024-02-15T10:04:57;5.00;;;1.70;;
20124;SDS011;10223;50.862;4.360;2024-02-15T10:07:24;7.57;;;2.40;;
20124;SDS011;10223;50.862;4.360;2024-02-15T10:09:53;4.20;;;1.50;;
20124;SDS011;10223;50.862;4.360;2024-02-15T10:12:20;5.47;;;1.50;;
20124;SDS011;10223;50.862;4.360;2024-02-15T10:14:48;8.10;;;1.80;;
20124;SDS011;10223;50.862;4.360;2024-02-15T10:17:19;7.13;;;1.40;;
20124;SDS011;10223;50.862;4.360;2024-02-15T10:19:55;5.67;;;1.50;;
20124;SDS011;10223;50.862;4.360;2024-02-15T10:22:29;4.67;;;1.27;;
20124;SDS011;10223;50.862;4.360;2024-02-15T10:25:11;3.60;;;1.37;;
20124;SDS011;10223;50.862;4.360;2024-02-15T10:27:38;6.60;;;1.50;;
20124;SDS011;10223;50.862;4.360;2024-02-15T10:30:13;4.67;;;1.50;;
20124;SDS011;10223;50.862;4.360;2024-02-15T10:32:42;4.70;;;1.60;;
20124;SDS011;10223;50.862;4.360;2024-02-15T10:35:09;4.47;;;1.60;;
20124;SDS011;10223;50.862;4.360;2024-02-15T10:37:40;3.80;;;1.40;;
20124;SDS011;10223;50.862;4.360;2024-02-15T10:40:08;4.43;;;2.00;;
20124;SDS011;10223;50.862;4.360;2024-02-15T10:42:38;3.67;;;1.77;;
20124;SDS011;10223;50.862;4.360;2024-02-15T10:45:07;8.93;;;1.67;;
20124;SDS011;10223;50.862;4.360;2024-02-15T10:47:36;6.83;;;1.63;;
20124;SDS011;10223;50.862;4.360;2024-02-15T10:50:07;5.72;;;1.67;;
20124;SDS011;10223;50.862;4.360;2024-02-15T10:52:36;13.23;;;1.90;;
20124;SDS011;10223;50.862;4.360;2024-02-15T10:55:12;4.07;;;1.37;;
20124;SDS011;10223;50.862;4.360;2024-02-15T10:57:45;3.88;;;1.58;;
20124;SDS011;10223;50.862;4.360;2024-02-15T11:00:16;5.47;;;1.75;;
20124;SDS011;10223;50.862;4.360;2024-02-15T11:02:53;3.70;;;1.35;;
20124;SDS011;10223;50.862;4.360;2024-02-15T11:05:29;6.68;;;1.60;;
20124;SDS011;10223;50.862;4.360;2024-02-15T11:07:59;3.72;;;1.23;;
20124;SDS011;10223;50.862;4.360;2024-02-15T11:10:28;5.82;;;1.30;;
20124;SDS011;10223;50.862;4.360;2024-02-15T11:12:55;5.40;;;1.80;;
20124;SDS011;10223;50.862;4.360;2024-02-15T11:15:43;5.50;;;1.85;;
20124;SDS011;10223;50.862;4.360;2024-02-15T11:18:41;7.13;;;1.40;;
20124;SDS011;10223;50.862;4.360;2024-02-15T11:21:10;5.40;;;1.48;;
20124;SDS011;10223;50.862;4.360;2024-02-15T11:23:37;3.30;;;1.30;;
20124;SDS011;10223;50.862;4.360;2024-02-15T11:26:09;4.97;;;1.42;;
20124;SDS011;10223;50.862;4.360;2024-02-15T11:28:57;6.30;;;1.10;;
20124;SDS011;10223;50.862;4.360;2024-02-15T11:40:21;7.03;;;1.40;;
20124;SDS011;10223;50.862;4.360;2024-02-15T11:42:51;2.80;;;1.05;;
20124;SDS011;10223;50.862;4.360;2024-02-15T11:45:19;3.30;;;1.30;;
20124;SDS011;10223;50.862;4.360;2024-02-15T11:47:50;6.10;;;1.67;;
20124;SDS011;10223;50.862;4.360;2024-02-15T11:50:21;4.73;;;1.57;;
20124;SDS011;10223;50.862;4.360;2024-02-15T11:52:49;3.50;;;1.20;;
20124;SDS011;10223;50.862;4.360;2024-02-15T11:55:20;4.43;;;1.75;;
20124;SDS011;10223;50.862;4.360;2024-02-15T11:57:55;5.72;;;1.30;;
20124;SDS011;10223;50.862;4.360;2024-02-15T12:00:29;6.07;;;1.60;;
20124;SDS011;10223;50.862;4.360;2024-02-15T12:03:15;3.03;;;1.23;;
20124;SDS011;10223;50.862;4.360;2024-02-15T12:06:00;9.25;;;1.35;;
20124;SDS011;10223;50.862;4.360;2024-02-15T12:08:45;8.07;;;1.70;;
20124;SDS011;10223;50.862;4.360;2024-02-15T12:11:29;5.97;;;1.60;;
20124;SDS011;10223;50.862;4.360;2024-02-15T12:14:15;6.82;;;1.83;;
20124;SDS011;10223;50.862;4.360;2024-02-15T12:17:03;7.77;;;1.30;;
20124;SDS011;10223;50.862;4.360;2024-02-15T12:19:48;7.68;;;1.98;;
20124;SDS011;10223;50.862;4.360;2024-02-15T12:22:17;5.25;;;1.50;;
20124;SDS011;10223;50.862;4.360;2024-02-15T12:24:52;8.90;;;2.07;;
20124;SDS011;10223;50.862;4.360;2024-02-15T12:27:21;19.13;;;2.70;;
20124;SDS011;10223;50.862;4.360;2024-02-15T12:29:59;8.50;;;2.22;;
20124;SDS011;10223;50.862;4.360;2024-02-15T12:32:26;8.40;;;2.17;;
20124;SDS011;10223;50.862;4.360;2024-02-15T12:35:01;9.37;;;2.20;;
20124;SDS011;10223;50.862;4.360;2024-02-15T12:37:37;6.70;;;2.10;;
20124;SDS011;10223;50.862;4.360;2024-02-15T12:40:09;7.00;;;1.92;;
20124;SDS011;10223;50.862;4.360;2024-02-15T12:42:40;6.00;;;1.75;;
20124;SDS011;10223;50.862;4.360;2024-02-15T12:45:15;8.95;;;1.55;;
20124;SDS011;10223;50.862;4.360;2024-02-15T12:47:47;3.33;;;1.55;;
20124;SDS011;10223;50.862;4.360;2024-02-15T12:50:16;5.10;;;1.73;;
20124;SDS011;10223;50.862;4.360;2024-02-15T12:52:45;4.18;;;1.52;;
20124;SDS011;10223;50.862;4.360;2024-02-15T12:55:14;6.68;;;1.45;;
20124;SDS011;10223;50.862;4.360;2024-02-15T12:57:45;3.97;;;1.40;;
20124;SDS011;10223;50.862;4.360;2024-02-15T13:00:18;3.15;;;1.20;;
20124;SDS011;10223;50.862;4.360;2024-02-15T13:02:48;4.70;;;1.10;;
20124;SDS011;10223;50.862;4.360;2024-02-15T13:05:16;2.20;;;0.93;;
20124;SDS011;10223;50.862;4.360;2024-02-15T13:07:44;8.55;;;1.30;;
20124;SDS011;10223;50.862;4.360;2024-02-15T13:10:11;4.90;;;1.20;;
20124;SDS011;10223;50.862;4.360;2024-02-15T13:12:40;2.85;;;1.00;;
20124;SDS011;10223;50.862;4.360;2024-02-15T13:15:09;5.60;;;1.30;;
20124;SDS011;10223;50.862;4.360;2024-02-15T13:17:42;3.55;;;0.98;;
20124;SDS011;10223;50.862;4.360;2024-02-15T13:20:10;5.00;;;0.80;;
20124;SDS011;10223;50.862;4.360;2024-02-15T13:22:39;4.22;;;1.10;;
20124;SDS011;10223;50.862;4.360;2024-02-15T13:25:06;7.07;;;2.08;;
20124;SDS011;10223;50.862;4.360;2024-02-15T13:27:34;4.38;;;1.67;;
20124;SDS011;10223;50.862;4.360;2024-02-15T13:30:02;2.10;;;0.90;;
20124;SDS011;10223;50.862;4.360;2024-02-15T13:32:33;4.82;;;1.13;;
20124;SDS011;10223;50.862;4.360;2024-02-15T13:35:02;3.30;;;1.10;;
20124;SDS011;10223;50.862;4.360;2024-02-15T13:37:37;6.57;;;1.20;;
20124;SDS011;10223;50.862;4.360;2024-02-15T13:40:08;3.67;;;0.90;;
20124;SDS011;10223;50.862;4.360;2024-02-15T13:42:40;2.83;;;1.20;;
20124;SDS011;10223;50.862;4.360;2024-02-15T13:45:12;5.55;;;1.00;;
20124;SDS011;10223;50.862;4.360;2024-02-15T13:47:39;2.10;;;0.90;;
20124;SDS011;10223;50.862;4.360;2024-02-15T13:50:08;3.28;;;1.10;;
20124;SDS011;10223;50.862;4.360;2024-02-15T13:52:39;5.82;;;1.08;;
20124;SDS011;10223;50.862;4.360;2024-02-15T13:55:08;3.92;;;1.15;;
20124;SDS011;10223;50.862;4.360;2024-02-15T13:57:36;2.88;;;0.90;;
20124;SDS011;10223;50.862;4.360;2024-02-15T14:00:04;2.15;;;0.90;;
20124;SDS011;10223;50.862;4.360;2024-02-15T14:02:31;1.80;;;1.00;;
20124;SDS011;10223;50.862;4.360;2024-02-15T14:04:58;3.05;;;1.10;;
20124;SDS011;10223;50.862;4.360;2024-02-15T14:07:27;5.50;;;1.23;;
20124;SDS011;10223;50.862;4.360;2024-02-15T14:09:54;3.97;;;0.90;;
20124;SDS011;10223;50.862;4.360;2024-02-15T14:12:21;3.25;;;1.15;;
20124;SDS011;10223;50.862;4.360;2024-02-15T14:14:48;3.20;;;0.93;;
20124;SDS011;10223;50.862;4.360;2024-02-15T14:17:15;6.65;;;1.20;;
20124;SDS011;10223;50.862;4.360;2024-02-15T14:19:42;5.63;;;0.90;;
20124;SDS011;10223;50.862;4.360;2024-02-15T14:22:09;4.63;;;1.10;;
20124;SDS011;10223;50.862;4.360;2024-02-15T14:24:42;3.28;;;1.00;;
20124;SDS011;10223;50.862;4.360;2024-02-15T14:27:09;4.90;;;1.02;;
20124;SDS011;10223;50.862;4.360;2024-02-15T14:29:37;1.85;;;0.70;;
20124;SDS011;10223;50.862;4.360;2024-02-15T14:32:24;2.00;;;0.77;;
20124;SDS011;10223;50.862;4.360;2024-02-15T14:35:08;1.77;;;0.80;;
20124;SDS011;10223;50.862;4.360;2024-02-15T14:37:36;3.50;;;1.02;;
20124;SDS011;10223;50.862;4.360;2024-02-15T14:40:05;3.65;;;0.80;;
20124;SDS011;10223;50.862;4.360;2024-02-15T14:42:35;1.90;;;0.88;;
20124;SDS011;10223;50.862;4.360;2024-02-15T14:45:04;3.53;;;1.00;;
20124;SDS011;10223;50.862;4.360;2024-02-15T14:47:31;1.50;;;0.60;;
20124;SDS011;10223;50.862;4.360;2024-02-15T14:49:58;3.97;;;1.27;;
20124;SDS011;10223;50.862;4.360;2024-02-15T14:52:25;3.35;;;1.13;;
20124;SDS011;10223;50.862;4.360;2024-02-15T14:54:52;4.38;;;0.70;;
20124;SDS011;10223;50.862;4.360;2024-02-15T14:57:21;1.83;;;1.02;;
20124;SDS011;10223;50.862;4.360;2024-02-15T14:59:49;3.70;;;1.00;;
20124;SDS011;10223;50.862;4.360;2024-02-15T15:02:16;5.65;;;0.80;;
20124;SDS011;10223;50.862;4.360;2024-02-15T15:04:43;5.00;;;1.27;;
20124;SDS011;10223;50.862;4.360;2024-02-15T15:07:33;5.38;;;1.25;;